Terminal Aerodrome Forecast
Issued by NWS Wakefield, VA

Home | Current Version | Previous Version | Text Only | Print | Product List | Glossary On
Versions: 1 2 3 4 5 6 7 8 9 10 11 12 13 14
418
FTUS41 KAKQ 291742
TAFRIC
TAF
KRIC 291742Z 2918/3018 01008KT P6SM SCT200
     FM300200 VRB03KT P6SM SCT050
     FM301300 02007KT P6SM SCT080=

USA.gov is the U.S. government's official web portal to all federal, state and local government web resources and services.